Currently 50°F in Pinon Hills, California, USA
50°F
50°F / 42°F
1 mph NE
0.00"
Monday, January 20, 2020 10:32 AM PST

Pinon Hills, California Weather Summary
Last 36 Hours

Temperature Winds Hourly Humidity Dewpoint
Time Report Norm Report Norm Max Gusts Precip. Rpt. Norm Rpt. Norm Pressure
1,2Mon 10:32 AM  49.9°F  54°F  1 mph NE  4 mph  4 mph  0.00"  46%  42%  29°F  30°F  30.02"
Mon 10:00 AM  47.3°F  53°F  1 mph S  4 mph  4 mph  0.00"  51%  42%  29°F  29°F  30.05"
Mon 09:00 AM  46.1°F  50°F  1 mph S  3 mph  4 mph  0.00"  50%  45%  28°F  29°F  30.08"
Mon 08:00 AM  43.7°F  47°F  1 mph W  3 mph  4 mph  0.00"  50%  51%  25°F  29°F  30.07"
Mon 07:00 AM  42.8°F  44°F  calm  3 mph  4 mph  0.00"  51%  53%  25°F  27°F  30.06"
Mon 06:00 AM  42.9°F  44°F  1 mph S  3 mph  5 mph  0.00"  50%  52%  25°F  27°F  30.04"
Mon 05:00 AM  42.3°F  43°F  1 mph S  3 mph  5 mph  0.00"  51%  53%  24°F  27°F  30.03"
3Mon 04:57 AM  41.8°F  43°F  1 mph S  3 mph  5 mph  ----  51%  53%  24°F  27°F  30.03"
Mon 04:00 AM  42.6°F  43°F  2 mph S  3 mph  4 mph  0.00"  50%  54%  24°F  27°F  30.04"
Mon 03:00 AM  43.1°F  44°F  1 mph S  3 mph  3 mph  0.00"  50%  53%  25°F  27°F  30.06"
Mon 02:00 AM  43.9°F  44°F  calm  3 mph  3 mph  0.00"  47%  52%  24°F  27°F  30.08"
Mon 01:00 AM  47.4°F  44°F  calm  3 mph  9 mph  0.00"  41%  52%  24°F  27°F  30.06"
Mon 12:00 AM  48.8°F  45°F  5 mph SE  3 mph  10 mph  0.00"  37%  52%  22°F  27°F  30.06"
Sun 11:00 PM  49.1°F  45°F  4 mph SE  3 mph  13 mph  0.00"  36%  52%  22°F  28°F  30.08"
Sun 10:00 PM  49.5°F  45°F  3 mph S  3 mph  9 mph  0.00"  36%  53%  23°F  28°F  30.10"
Sun 09:00 PM  50.1°F  45°F  3 mph S  3 mph  9 mph  0.00"  36%  54%  23°F  29°F  30.10"
Sun 08:00 PM  50.1°F  46°F  2 mph SE  3 mph  8 mph  0.00"  36%  55%  23°F  30°F  30.10"
Sun 07:00 PM  49.7°F  45°F  2 mph SE  3 mph  9 mph  0.00"  38%  57%  24°F  31°F  30.11"
Sun 06:00 PM  45.7°F  46°F  2 mph E  3 mph  3 mph  0.00"  46%  58%  25°F  31°F  30.11"
Sun 05:00 PM  48.2°F  49°F  calm  2 mph  3 mph  0.00"  43%  54%  26°F  32°F  30.11"
Sun 04:00 PM  52.4°F  54°F  calm  3 mph  4 mph  0.00"  36%  45%  25°F  32°F  30.12"
Sun 03:00 PM  53.2°F  55°F  2 mph E  4 mph  6 mph  0.00"  33%  44%  23°F  33°F  30.12"
Sun 02:00 PM  53.9°F  56°F  4 mph E  4 mph  8 mph  0.00"  31%  42%  22°F  32°F  30.13"
Sun 01:00 PM  53.5°F  55°F  calm  4 mph  9 mph  0.00"  31%  42%  22°F  32°F  30.14"
Sun 12:00 PM  53.0°F  55°F  2 mph NE  4 mph  9 mph  0.00"  31%  42%  22°F  31°F  30.16"
Sun 11:00 AM  51.4°F  54°F  3 mph NE  4 mph  8 mph  0.00"  33%  43%  22°F  31°F  30.21"
Sun 10:00 AM  52.6°F  52°F  calm  4 mph  5 mph  0.00"  30%  43%  21°F  30°F  30.22"
Sun 09:00 AM  50.7°F  50°F  2 mph E  3 mph  8 mph  0.00"  34%  46%  22°F  29°F  30.20"
Sun 08:00 AM  49.7°F  46°F  5 mph E  3 mph  8 mph  0.00"  36%  51%  23°F  29°F  30.19"
Sun 07:00 AM  42.2°F  44°F  3 mph S  3 mph  7 mph  0.00"  44%  53%  21°F  27°F  30.21"
Sun 06:00 AM  40.9°F  44°F  3 mph S  3 mph  6 mph  0.00"  44%  53%  19°F  27°F  30.21"
Sun 05:00 AM  40.4°F  43°F  2 mph S  3 mph  6 mph  0.00"  42%  55%  18°F  27°F  30.20"
Sun 04:00 AM  37.7°F  43°F  3 mph SE  3 mph  4 mph  0.00"  44%  56%  17°F  28°F  30.20"
Sun 03:00 AM  36.9°F  44°F  calm  3 mph  4 mph  0.00"  47%  55%  17°F  28°F  30.22"
Sun 02:00 AM  38.1°F  44°F  1 mph SE  3 mph  4 mph  0.00"  44%  54%  17°F  28°F  30.21"
Sun 01:00 AM  35.7°F  44°F  2 mph SE  3 mph  4 mph  0.00"  49%  54%  18°F  28°F  30.22"
Sun 12:00 AM  36.3°F  44°F  3 mph SE  3 mph  5 mph  0.00"  49%  54%  18°F  28°F  30.23"
Sat 11:00 PM  35.8°F  45°F  3 mph SE  3 mph  4 mph  0.00"  53%  54%  20°F  28°F  30.24"

  1. Current weather data. No green row appears if the current weather data is also the high or low for the current day.
  2. High temperature for the current day.
  3. Low temperature for the current day.

The Pinon Hills, California weather pages are a service of WeatherCurrents.
Copyright ©2020  WeatherCurrents. All rights reserved. - Submit questions and comments - Privacy Policy

This page automatically refreshes every 10 minutes.